Time;durP1;ratioP1;P1;durP2;ratioP2;P2;SDS_P1;SDS_P2;PMS_P1;PMS_P2;Temp;Humidity;BMP_temperature;BMP_pressure;BME280_temperature;BME280_humidity;BME280_pressure;Samples;Min_cycle;Max_cycle;Signal;HPM_P1;HPM_P2
2022/08/12 00:44:48;;;;;;;;;;;;;;;20.49;100.00;147873.72;5095545;28;19916;-79
2022/08/12 00:47:14;;;;;;;;;;;;;;;20.44;100.00;147862.19;5074833;28;19921;-80
2022/08/12 00:49:40;;;;;;;;;;;;;;;20.39;100.00;147850.66;5074902;28;20666;-78
2022/08/12 00:52:06;;;;;;;;;;;;;;;20.32;100.00;147832.69;5075746;28;19944;-79
2022/08/12 00:54:35;;;;;;;;;;;;;;;20.34;100.00;147836.53;5095113;28;19924;-79
2022/08/12 00:57:05;;;;;;;;;;;;;;;20.31;100.00;147830.16;5085654;28;20102;-78
2022/08/12 00:59:31;;;;;;;;;;;;;;;20.27;100.00;147819.91;5086189;28;19916;-80
2022/08/12 01:01:58;;;;;;;;;;;;;;;20.20;100.00;147802.00;5084780;28;20334;-76
2022/08/12 01:12:41;;;;;;;;;;;;;;;20.09;100.00;147775.09;5076998;28;19928;-79
2022/08/12 01:15:07;;;;;;;;;;;;;;;20.06;100.00;147767.41;5090565;28;19922;-81
2022/08/12 01:17:32;;;;;;;;;;;;;;;20.05;100.00;147766.09;5093933;28;19916;-80
2022/08/12 01:20:02;;;;;;;;;;;;;;;20.08;100.00;147773.78;5078723;28;19974;-80
2022/08/12 01:22:34;;;;;;;;;;;;;;;20.03;100.00;147761.00;5076777;28;19916;-78
2022/08/12 01:25:06;;;;;;;;;;;;;;;19.99;100.00;147750.72;5090689;28;20022;-79
2022/08/12 01:27:33;;;;;;;;;;;;;;;19.95;100.00;147704.06;5090269;28;20301;-77
2022/08/12 01:29:59;;;;;;;;;;;;;;;19.92;100.00;144131.31;5080623;28;20334;-80
2022/08/12 01:32:25;;;;;;;;;;;;;;;19.88;100.00;137359.47;5093982;28;19950;-76
2022/08/12 01:35:08;;;;;;;;;;;;;;;19.83;100.00;129419.78;5079228;28;20439;-80
2022/08/12 01:37:35;;;;;;;;;;;;;;;19.83;100.00;126320.22;5053456;28;19921;-78
2022/08/12 01:40:02;;;;;;;;;;;;;;;19.82;100.00;119784.59;5068583;28;19924;-77
2022/08/12 01:42:31;;;;;;;;;;;;;;;19.79;100.00;111198.06;5093930;28;20497;-78
2022/08/12 01:44:56;;;;;;;;;;;;;;;19.74;100.00;102628.53;5088535;28;19917;-79
2022/08/12 01:47:31;;;;;;;;;;;;;;;19.66;100.00;101245.19;5073915;28;19920;-78
2022/08/12 01:50:15;;;;;;;;;;;;;;;19.63;100.00;94065.72;5073060;28;20277;-80
2022/08/12 01:52:43;;;;;;;;;;;;;;;19.57;100.00;91667.44;5107422;28;20333;-79
2022/08/12 01:55:10;;;;;;;;;;;;;;;19.45;100.00;82112.22;5098991;28;19927;-79
2022/08/12 01:57:43;;;;;;;;;;;;;;;19.39;100.00;67841.16;5053673;28;19916;-78
2022/08/12 02:00:12;;;;;;;;;;;;;;;19.26;100.00;59699.81;5077037;28;20016;-79
2022/08/12 02:02:56;;;;;;;;;;;;;;;19.21;100.00;54287.13;5093761;28;19916;-77
2022/08/12 02:11:27;;;;;;;;;;;;;;;18.99;100.00;33389.75;5074355;28;19927;-80
2022/08/12 02:14:15;;;;;;;;;;;;;;;18.96;100.00;28689.63;5072230;28;19923;-79
2022/08/12 02:17:07;;;;;;;;;;;;;;;18.96;100.00;23661.81;5107463;28;19920;-79
2022/08/12 02:19:56;;;;;;;;;;;;;;;18.94;100.00;19977.97;5071087;28;19917;-80
2022/08/12 02:22:28;;;;;;;;;;;;;;;18.98;100.00;19979.53;5054504;28;19920;-79
2022/08/12 02:25:05;;;;;;;;;;;;;;;18.97;100.00;19644.44;5107313;28;20329;-79
2022/08/12 02:27:47;;;;;;;;;;;;;;;18.92;100.00;18638.53;5073459;28;19925;-80
2022/08/12 02:30:20;;;;;;;;;;;;;;;18.88;100.00;18302.56;5079951;28;19920;-79
2022/08/12 02:32:46;;;;;;;;;;;;;;;18.85;100.00;17966.88;5094083;28;20386;-80
2022/08/12 02:35:15;;;;;;;;;;;;;;;18.79;100.00;16961.50;5093101;28;19963;-79
2022/08/12 02:37:41;;;;;;;;;;;;;;;18.75;100.00;16291.41;5093532;28;19920;-79
2022/08/12 02:40:07;;;;;;;;;;;;;;;18.77;100.00;15623.56;5093531;28;20019;-79
2022/08/12 02:42:33;;;;;;;;;;;;;;;18.73;100.00;14953.81;5093880;28;19916;-79
2022/08/12 02:45:03;;;;;;;;;;;;;;;18.71;100.00;13283.16;5092969;28;19916;-79
2022/08/12 02:47:33;;;;;;;;;;;;;;;18.69;100.00;12948.56;5052450;28;19927;-79
2022/08/12 02:50:00;;;;;;;;;;;;;;;18.69;100.00;11613.00;5067152;28;19958;-79
2022/08/12 02:52:26;;;;;;;;;;;;;;;18.70;100.00;11279.53;5079886;28;19923;-78
2022/08/12 02:54:56;;;;;;;;;;;;;;;18.70;100.00;9944.69;5091677;28;20268;-77
2022/08/12 02:57:22;;;;;;;;;;;;;;;18.69;100.00;9944.41;5080536;28;19925;-77
2022/08/12 02:59:49;;;;;;;;;;;;;;;18.67;100.00;8276.16;5081062;28;19945;-76
2022/08/12 03:02:18;;;;;;;;;;;;;;;18.68;100.00;9276.91;5090614;28;19993;-78
2022/08/12 03:04:52;;;;;;;;;;;;;;;18.69;100.00;10278.06;5077716;28;19968;-78
2022/08/12 03:07:23;;;;;;;;;;;;;;;18.64;100.00;9943.28;5071733;28;20369;-78
2022/08/12 03:10:01;;;;;;;;;;;;;;;18.68;100.00;9610.63;5104950;28;19995;-79
2022/08/12 03:12:28;;;;;;;;;;;;;;;18.64;100.00;9943.28;5105077;28;19928;-77
2022/08/12 03:14:56;;;;;;;;;;;;;;;18.59;100.00;7940.78;5087158;28;19927;-79
2022/08/12 03:17:26;;;;;;;;;;;;;;;18.55;100.00;5939.88;5091034;28;20025;-76
2022/08/12 03:19:53;;;;;;;;;;;;;;;18.55;100.00;5606.53;5091855;28;19924;-79
2022/08/12 03:22:19;;;;;;;;;;;;;;;18.48;100.00;4938.97;5090749;28;19927;-79
2022/08/12 03:24:45;;;;;;;;;;;;;;;18.45;100.00;2940.22;5076768;28;19946;-79
2022/08/12 03:27:12;;;;;;;;;;;;;;;18.45;100.00;-54.88;5084012;28;19930;-79
2022/08/12 03:29:38;;;;;;;;;;;;;;;18.43;100.00;-2050.50;5074382;28;19916;-78
2022/08/12 03:32:04;;;;;;;;;;;;;;;18.41;100.00;-3047.94;5071605;28;19923;-78
2022/08/12 03:34:34;;;;;;;;;;;;;;;18.42;100.00;-5041.66;5072886;28;19923;-78
2022/08/12 03:37:01;;;;;;;;;;;;;;;18.43;100.00;-6038.13;5070284;28;20011;-78
2022/08/12 03:39:47;;;;;;;;;;;;;;;18.44;100.00;-7034.41;5051754;28;19962;-78
2022/08/12 03:42:24;;;;;;;;;;;;;;;18.39;100.00;-8030.41;5058246;28;19920;-77
2022/08/12 04:01:41;;;;;;;;;;;;;;;18.27;100.00;-18635.75;5092619;28;19968;-76
2022/08/12 04:04:10;;;;;;;;;;;;;;;18.29;100.00;-18305.03;5058025;28;19932;-79
2022/08/12 04:06:40;;;;;;;;;;;;;;;18.24;100.00;-18966.16;5105153;28;19920;-76
2022/08/12 04:09:05;;;;;;;;;;;;;;;18.20;100.00;-19296.22;5083395;28;19917;-76
2022/08/12 04:14:19;;;;;;;;;;;;;;;18.28;100.00;-18635.94;5078159;28;19973;-78
2022/08/12 04:17:03;;;;;;;;;;;;;;;18.28;100.00;-18304.88;5075984;28;19948;-78
2022/08/12 04:19:28;;;;;;;;;;;;;;;18.27;100.00;-17973.78;5085396;28;20280;-78
2022/08/12 04:21:54;;;;;;;;;;;;;;;18.26;100.00;-18304.59;5078299;28;19920;-76
2022/08/12 04:24:24;;;;;;;;;;;;;;;18.28;100.00;-17973.94;5084148;28;19962;-77
2022/08/12 04:26:49;;;;;;;;;;;;;;;18.25;100.00;-18304.44;5077378;28;19916;-77
2022/08/12 04:29:14;;;;;;;;;;;;;;;18.27;100.00;-18635.66;5095496;28;19927;-78
2022/08/12 04:31:41;;;;;;;;;;;;;;;18.28;100.00;-18966.78;5095040;28;20019;-78
2022/08/12 04:34:15;;;;;;;;;;;;;;;18.24;100.00;-19958.78;5094780;28;19955;-78
2022/08/12 04:36:40;;;;;;;;;;;;;;;18.25;100.00;-20951.34;5095400;28;19942;-77
2022/08/12 04:39:07;;;;;;;;;;;;;;;18.27;100.00;-20290.19;5095275;28;19916;-78
2022/08/12 04:41:33;;;;;;;;;;;;;;;18.36;100.00;-19630.06;5094865;28;20352;-76
2022/08/12 04:44:00;;;;;;;;;;;;;;;18.39;100.00;-18968.72;5094987;28;19920;-79
2022/08/12 04:46:26;;;;;;;;;;;;;;;18.45;100.00;-18638.84;5095729;28;19916;-79
2022/08/12 04:48:51;;;;;;;;;;;;;;;18.53;100.00;-17646.78;5095570;28;19926;-78
2022/08/12 04:51:18;;;;;;;;;;;;;;;18.58;100.00;-16322.53;5095168;28;19949;-79
2022/08/12 04:53:48;;;;;;;;;;;;;;;18.87;100.00;-15331.88;5095915;28;19924;-77
2022/08/12 04:56:15;;;;;;;;;;;;;;;19.19;100.00;-11352.97;5094087;28;19927;-79
2022/08/12 04:58:41;;;;;;;;;;;;;;;19.19;100.00;-8030.81;5093970;28;19951;-79
2022/08/12 05:01:06;;;;;;;;;;;;;;;19.30;100.00;-5370.63;5094130;28;19912;-76
2022/08/12 05:03:34;;;;;;;;;;;;;;;19.48;100.00;-2707.13;5094678;28;19978;-76
2022/08/12 05:05:59;;;;;;;;;;;;;;;19.48;100.00;290.72;5094887;28;20002;-79
2022/08/12 05:08:25;;;;;;;;;;;;;;;19.37;100.00;2289.00;5095549;28;19947;-78
2022/08/12 05:10:54;;;;;;;;;;;;;;;19.52;100.00;624.59;5081528;28;20006;-78
2022/08/12 05:13:21;;;;;;;;;;;;;;;20.08;100.00;4970.78;5095540;28;20343;-79
2022/08/12 05:15:46;;;;;;;;;;;;;;;20.53;100.00;18034.88;5094485;28;19916;-78
2022/08/12 05:18:12;;;;;;;;;;;;;;;20.53;100.00;30125.13;5086226;28;20422;-78
2022/08/12 05:20:38;;;;;;;;;;;;;;;20.42;100.00;34492.63;5078623;28;19916;-74
2022/08/12 05:23:07;;;;;;;;;;;;;;;20.30;100.00;38863.06;5094427;28;19924;-77
2022/08/12 05:25:33;;;;;;;;;;;;;;;20.20;100.00;39529.78;5078866;28;19920;-76
2022/08/12 05:27:59;;;;;;;;;;;;;;;20.25;100.00;40881.53;5080140;28;20007;-77
2022/08/12 05:30:26;;;;;;;;;;;;;;;20.28;100.00;43581.97;5076404;28;19920;-77
2022/08/12 05:32:54;;;;;;;;;;;;;;;20.30;100.00;47296.66;5093975;28;19920;-78
2022/08/12 05:35:20;;;;;;;;;;;;;;;20.27;100.00;50334.81;5093832;28;19963;-77
2022/08/12 05:37:45;;;;;;;;;;;;;;;20.30;100.00;48647.69;5094745;28;19959;-77
2022/08/12 05:40:10;;;;;;;;;;;;;;;20.65;100.00;52398.28;5093456;28;19920;-77
2022/08/12 05:42:37;;;;;;;;;;;;;;;21.31;100.00;74537.63;5090973;28;19920;-75
2022/08/12 05:45:02;;;;;;;;;;;;;;;21.45;100.00;113576.56;5072266;28;19940;-75
2022/08/12 05:47:27;;;;;;;;;;;;;;;21.30;100.00;148077.53;5072592;28;20365;-77
2022/08/12 05:49:53;;;;;;;;;;;;;;;21.36;100.00;148091.59;5072399;28;20402;-75
2022/08/12 05:52:18;;;;;;;;;;;;;;;21.91;100.00;148227.56;5072808;28;19917;-75
2022/08/12 05:54:44;;;;;;;;;;;;;;;23.24;100.00;148561.28;5072971;28;19923;-77
2022/08/12 05:57:11;;;;;;;;;;;;;;;24.24;100.00;148810.41;5071680;28;19924;-77
2022/08/12 05:59:40;;;;;;;;;;;;;;;24.87;100.00;148968.41;5072496;28;20368;-77
2022/08/12 06:02:08;;;;;;;;;;;;;;;25.57;100.00;149141.97;5072665;28;19966;-77
2022/08/12 06:04:34;;;;;;;;;;;;;;;25.86;100.00;149214.00;5087794;28;20014;-76
2022/08/12 06:07:01;;;;;;;;;;;;;;;25.84;100.00;149210.13;5092471;28;20006;-77
2022/08/12 06:09:29;;;;;;;;;;;;;;;24.66;100.00;148915.78;5093077;28;19912;-77
2022/08/12 06:11:54;;;;;;;;;;;;;;;23.44;100.00;148610.03;5077743;28;19921;-76
2022/08/12 06:14:21;;;;;;;;;;;;;;;22.63;100.00;148408.50;5072895;28;19958;-77
2022/08/12 06:16:47;;;;;;;;;;;;;;;22.23;100.00;148309.69;5072992;28;20372;-77
2022/08/12 06:19:12;;;;;;;;;;;;;;;22.07;100.00;148268.63;5076892;28;19943;-77
2022/08/12 06:21:40;;;;;;;;;;;;;;;22.30;100.00;148326.41;5093268;28;19923;-77
2022/08/12 06:24:09;;;;;;;;;;;;;;;22.36;100.00;148341.78;5085304;28;19920;-78
2022/08/12 06:26:35;;;;;;;;;;;;;;;22.03;100.00;148259.66;5072169;28;19970;-78
2022/08/12 06:29:01;;;;;;;;;;;;;;;21.83;100.00;148208.31;5072171;28;20056;-78
2022/08/12 06:31:26;;;;;;;;;;;;;;;21.74;100.00;148186.56;5071699;28;19975;-76
2022/08/12 06:33:54;;;;;;;;;;;;;;;21.64;100.00;148160.91;5071958;28;20007;-78
2022/08/12 06:36:22;;;;;;;;;;;;;;;21.75;100.00;148189.13;5071719;28;20373;-78
2022/08/12 06:38:47;;;;;;;;;;;;;;;21.76;100.00;148191.66;5073223;28;19921;-78
2022/08/12 06:44:00;;;;;;;;;;;;;;;22.10;100.00;148276.31;5073324;28;20323;-77
2022/08/12 06:46:26;;;;;;;;;;;;;;;22.90;100.00;148475.19;5071852;28;19988;-76
2022/08/12 06:48:57;;;;;;;;;;;;;;;23.69;100.00;148671.66;5073694;28;20364;-79
2022/08/12 06:51:24;;;;;;;;;;;;;;;23.85;100.00;148712.81;5056719;28;19946;-78
2022/08/12 06:53:50;;;;;;;;;;;;;;;23.67;100.00;148667.81;5071565;28;19916;-78
2022/08/12 06:56:15;;;;;;;;;;;;;;;22.79;100.00;148446.97;5072037;28;19944;-79
2022/08/12 06:58:41;;;;;;;;;;;;;;;22.78;100.00;148445.72;5071881;28;19964;-78
2022/08/12 07:01:06;;;;;;;;;;;;;;;22.61;100.00;148403.38;5072075;28;19938;-79
2022/08/12 07:03:37;;;;;;;;;;;;;;;22.85;100.00;148463.66;5073048;28;19916;-79
2022/08/12 07:06:04;;;;;;;;;;;;;;;23.38;100.00;148594.63;5071393;28;19916;-77
2022/08/12 07:08:30;;;;;;;;;;;;;;;23.63;100.00;148658.81;5072247;28;20325;-76
2022/08/12 07:11:00;;;;;;;;;;;;;;;24.04;100.00;148759.03;5072359;28;20015;-78
2022/08/12 07:13:34;;;;;;;;;;;;;;;24.27;100.00;148818.09;5071989;28;19924;-76
2022/08/12 07:16:00;;;;;;;;;;;;;;;24.72;100.00;148929.91;5069345;28;20023;-75
2022/08/12 07:18:31;;;;;;;;;;;;;;;25.33;100.00;149082.88;5070357;28;19971;-76
2022/08/12 07:20:57;;;;;;;;;;;;;;;26.04;100.00;149259.03;5054884;28;19920;-77
2022/08/12 07:23:29;;;;;;;;;;;;;;;26.42;100.00;149355.47;5070783;28;19951;-77
2022/08/12 07:25:55;;;;;;;;;;;;;;;26.71;100.00;149426.25;5071015;28;19952;-78
2022/08/12 07:28:24;;;;;;;;;;;;;;;26.88;100.00;149470.03;5071344;28;19920;-78
2022/08/12 07:30:52;;;;;;;;;;;;;;;27.58;100.00;149646.34;5070872;28;20389;-78
2022/08/12 07:33:21;;;;;;;;;;;;;;;27.46;100.00;149615.47;5070700;28;19916;-77
2022/08/12 07:35:47;;;;;;;;;;;;;;;27.46;100.00;149615.47;5070407;28;20392;-77
2022/08/12 07:38:23;;;;;;;;;;;;;;;27.55;100.00;149637.38;5070394;28;19924;-77
2022/08/12 07:40:48;;;;;;;;;;;;;;;27.45;100.00;149611.59;5070984;28;19916;-78
2022/08/12 07:43:16;;;;;;;;;;;;;;;27.46;100.00;149614.19;5070211;28;19970;-76
2022/08/12 07:45:41;;;;;;;;;;;;;;;27.51;100.00;149628.31;5071174;28;20218;-78
2022/08/12 07:48:07;;;;;;;;;;;;;;;27.42;100.00;149603.88;5070528;28;19912;-78
2022/08/12 07:50:32;;;;;;;;;;;;;;;27.87;100.00;149717.13;5070120;28;19950;-77
2022/08/12 07:52:58;;;;;;;;;;;;;;;28.70;100.00;149925.84;5070941;28;19951;-77
2022/08/12 07:55:23;;;;;;;;;;;;;;;29.00;100.00;150001.81;5071367;28;19970;-78
2022/08/12 07:57:58;;;;;;;;;;;;;;;29.62;100.00;150156.50;5070090;28;19924;-77
2022/08/12 08:00:24;;;;;;;;;;;;;;;28.58;100.00;149894.88;5070910;28;20447;-77
2022/08/12 08:02:53;;;;;;;;;;;;;;;29.61;100.00;150153.91;5069587;28;19916;-76
2022/08/12 08:05:19;;;;;;;;;;;;;;;29.47;100.00;150117.81;5068629;28;19940;-75
2022/08/12 08:07:45;;;;;;;;;;;;;;;29.35;100.00;150088.16;5069967;28;19920;-75
2022/08/12 08:10:10;;;;;;;;;;;;;;;29.98;100.00;150246.75;5069295;28;19923;-75
2022/08/12 08:12:54;;;;;;;;;;;;;;;29.32;100.00;150081.75;5069771;28;19917;-75
2022/08/12 08:15:21;;;;;;;;;;;;;;;28.93;100.00;149983.81;5070211;28;19920;-75
2022/08/12 08:18:19;;;;;;;;;;;;;;;28.25;100.00;149812.47;5069318;28;19917;-75
2022/08/12 08:20:44;;;;;;;;;;;;;;;29.01;100.00;150004.41;5036539;28;19969;-75
2022/08/12 08:23:16;;;;;;;;;;;;;;;29.29;100.00;150074.03;5069822;28;20003;-76
2022/08/12 08:25:42;;;;;;;;;;;;;;;28.79;100.00;149949.03;5068898;28;20009;-75
2022/08/12 08:28:09;;;;;;;;;;;;;;;29.74;100.00;150186.16;5069633;28;19968;-75
2022/08/12 08:30:37;;;;;;;;;;;;;;;29.63;100.00;150159.09;5069598;28;19913;-77
2022/08/12 08:33:02;;;;;;;;;;;;;;;29.83;100.00;150209.41;5068430;28;20288;-75
2022/08/12 08:35:27;;;;;;;;;;;;;;;29.87;100.00;150218.41;5069641;28;19924;-77
2022/08/12 08:38:05;;;;;;;;;;;;;;;30.73;100.00;150433.72;5069492;28;19920;-75
2022/08/12 08:43:15;;;;;;;;;;;;;;;30.15;100.00;150289.28;5070856;28;19923;-75
2022/08/12 08:45:40;;;;;;;;;;;;;;;29.86;100.00;150217.13;5069356;28;19924;-75
2022/08/12 08:48:05;;;;;;;;;;;;;;;30.63;100.00;150407.97;5070027;28;19913;-74
2022/08/12 08:50:31;;;;;;;;;;;;;;;30.16;100.00;150290.56;5069131;28;19921;-75
2022/08/12 08:52:56;;;;;;;;;;;;;;;29.89;100.00;150223.53;5068326;28;19912;-75
2022/08/12 08:55:22;;;;;;;;;;;;;;;29.73;100.00;150184.81;5069645;28;19943;-75
2022/08/12 08:57:50;;;;;;;;;;;;;;;29.44;100.00;150110.09;5071326;28;19943;-76
2022/08/12 09:00:16;;;;;;;;;;;;;;;29.77;100.00;150192.56;5071769;28;19955;-79
2022/08/12 09:02:43;;;;;;;;;;;;;;;29.89;100.00;150223.53;5073949;28;19928;-77
2022/08/12 09:05:10;;;;;;;;;;;;;;;29.76;100.00;150190.00;5073417;28;19916;-76
2022/08/12 09:07:46;;;;;;;;;;;;;;;29.19;100.00;150048.19;5073373;28;19963;-78
2022/08/12 09:10:12;;;;;;;;;;;;;;;29.09;100.00;150023.75;5074498;28;19989;-76
2022/08/12 09:15:23;;;;;;;;;;;;;;;28.77;100.00;149943.84;5074610;28;20049;-78
2022/08/12 09:17:54;;;;;;;;;;;;;;;29.38;100.00;150094.63;5073377;28;19916;-79
2022/08/12 09:20:20;;;;;;;;;;;;;;;29.43;100.00;150107.50;5074357;28;19962;-77
2022/08/12 09:22:47;;;;;;;;;;;;;;;29.33;100.00;150084.34;5072382;28;19970;-78
2022/08/12 09:25:12;;;;;;;;;;;;;;;29.82;100.00;150205.53;5072161;28;19963;-76
2022/08/12 09:27:37;;;;;;;;;;;;;;;29.58;100.00;150146.16;5074389;28;19952;-77
2022/08/12 09:30:03;;;;;;;;;;;;;;;29.28;100.00;150070.16;5071887;28;19923;-76
2022/08/12 09:32:28;;;;;;;;;;;;;;;28.97;100.00;149994.09;5072654;28;19939;-76
2022/08/12 09:34:53;;;;;;;;;;;;;;;29.10;100.00;150025.00;5072149;28;20391;-77
2022/08/12 09:37:18;;;;;;;;;;;;;;;28.78;100.00;149945.16;5071992;28;20037;-76
2022/08/12 09:39:44;;;;;;;;;;;;;;;28.93;100.00;149982.50;5072556;28;20292;-77
2022/08/12 09:47:44;;;;;;;;;;;;;;;28.53;100.00;149882.03;5074605;28;20016;-76
2022/08/12 09:50:09;;;;;;;;;;;;;;;28.41;100.00;149853.66;5056192;28;19952;-75
2022/08/12 09:52:35;;;;;;;;;;;;;;;28.63;100.00;149907.81;5072364;28;19967;-75
2022/08/12 09:55:00;;;;;;;;;;;;;;;28.60;100.00;149901.34;5072205;28;20422;-77
2022/08/12 09:57:26;;;;;;;;;;;;;;;28.58;100.00;149896.22;5072718;28;20031;-78
2022/08/12 09:59:51;;;;;;;;;;;;;;;28.40;100.00;149851.13;5072709;28;19920;-78
2022/08/12 10:02:16;;;;;;;;;;;;;;;28.36;100.00;149839.53;5072639;28;19916;-79
2022/08/12 10:04:47;;;;;;;;;;;;;;;28.55;100.00;149888.44;5072447;28;19947;-78
2022/08/12 10:07:14;;;;;;;;;;;;;;;28.32;100.00;149830.47;5073077;28;19917;-80
2022/08/12 10:09:40;;;;;;;;;;;;;;;28.52;100.00;149879.44;5073583;28;19917;-78
2022/08/12 10:14:52;;;;;;;;;;;;;;;28.62;100.00;149906.53;5075137;28;19966;-78
2022/08/12 10:17:21;;;;;;;;;;;;;;;29.09;100.00;150022.47;5073319;28;19917;-80
2022/08/12 10:19:46;;;;;;;;;;;;;;;29.09;100.00;150023.75;5073703;28;19916;-78
2022/08/12 10:22:14;;;;;;;;;;;;;;;29.26;100.00;150066.31;5073386;28;19917;-79
2022/08/12 10:24:39;;;;;;;;;;;;;;;29.12;100.00;150031.47;5073891;28;20329;-79
2022/08/12 10:29:49;;;;;;;;;;;;;;;29.34;100.00;150086.91;5102567;28;19967;-79
2022/08/12 10:32:20;;;;;;;;;;;;;;;29.20;100.00;150050.84;5073393;28;19921;-78
2022/08/12 10:34:46;;;;;;;;;;;;;;;29.39;100.00;150097.22;5076958;28;20284;-79
2022/08/12 10:37:12;;;;;;;;;;;;;;;29.64;100.00;150161.63;5073319;28;20019;-77
2022/08/12 10:39:38;;;;;;;;;;;;;;;29.72;100.00;150182.28;5071357;28;19916;-77
2022/08/12 10:45:05;;;;;;;;;;;;;;;29.67;100.00;150168.09;5073434;28;19963;-78
2022/08/12 10:47:31;;;;;;;;;;;;;;;30.19;100.00;150299.63;5071356;28;20195;-77
2022/08/12 10:49:58;;;;;;;;;;;;;;;30.45;100.00;150362.81;5071220;28;19925;-78
2022/08/12 10:52:24;;;;;;;;;;;;;;;29.91;100.00;150228.72;5071813;28;19978;-78
2022/08/12 10:54:49;;;;;;;;;;;;;;;30.11;100.00;150277.69;5072254;28;20332;-76
2022/08/12 10:57:16;;;;;;;;;;;;;;;30.18;100.00;150295.75;5071073;28;20294;-77
2022/08/12 10:59:41;;;;;;;;;;;;;;;30.02;100.00;150257.06;5070843;28;20263;-77
2022/08/12 11:02:09;;;;;;;;;;;;;;;29.86;100.00;150215.81;5071210;28;20011;-75
2022/08/12 11:04:37;;;;;;;;;;;;;;;30.04;100.00;150260.94;5071651;28;19923;-75
2022/08/12 11:07:02;;;;;;;;;;;;;;;30.01;100.00;150253.19;5070628;28;19917;-76
2022/08/12 11:09:30;;;;;;;;;;;;;;;30.26;100.00;150316.34;5071136;28;19912;-75
2022/08/12 11:11:58;;;;;;;;;;;;;;;30.85;100.00;150463.41;5071096;28;19970;-77
2022/08/12 11:14:31;;;;;;;;;;;;;;;30.57;100.00;150393.75;5070275;28;19919;-76
2022/08/12 11:16:57;;;;;;;;;;;;;;;30.45;100.00;150362.81;5071062;28;19964;-75
2022/08/12 11:19:23;;;;;;;;;;;;;;;30.53;100.00;150384.75;5070819;28;19921;-78
2022/08/12 11:21:49;;;;;;;;;;;;;;;30.84;100.00;150462.13;5070399;28;19916;-74
2022/08/12 11:24:14;;;;;;;;;;;;;;;30.63;100.00;150407.97;5069857;28;20292;-77
2022/08/12 11:26:40;;;;;;;;;;;;;;;30.60;100.00;150402.78;5071038;28;19981;-76
2022/08/12 11:29:05;;;;;;;;;;;;;;;31.04;100.00;150511.16;5070434;28;20019;-74
2022/08/12 11:31:31;;;;;;;;;;;;;;;31.08;100.00;150522.75;5071261;28;19927;-75
2022/08/12 11:33:57;;;;;;;;;;;;;;;30.96;100.00;150491.75;5070460;28;20292;-76
2022/08/12 11:36:22;;;;;;;;;;;;;;;30.96;100.00;150493.03;5069789;28;19920;-75
2022/08/12 11:38:47;;;;;;;;;;;;;;;30.91;100.00;150480.16;5070442;28;19961;-76
2022/08/12 11:41:13;;;;;;;;;;;;;;;30.90;100.00;150476.28;5070465;28;20058;-76
2022/08/12 11:43:39;;;;;;;;;;;;;;;31.25;100.00;150564.06;5069700;28;19960;-77
2022/08/12 11:46:04;;;;;;;;;;;;;;;31.08;100.00;150521.50;5070551;28;19955;-76
2022/08/12 11:48:35;;;;;;;;;;;;;;;30.81;100.00;150454.38;5070639;28;20376;-76
2022/08/12 11:51:00;;;;;;;;;;;;;;;30.96;96.88;150491.75;5070122;28;19917;-76
2022/08/12 11:53:29;;;;;;;;;;;;;;;30.88;92.27;150472.41;5070575;28;19916;-76
2022/08/12 11:55:55;;;;;;;;;;;;;;;30.81;92.38;150454.38;5069678;28;19955;-78
2022/08/12 11:58:20;;;;;;;;;;;;;;;30.81;100.00;150453.06;5072339;28;19963;-77
2022/08/12 12:00:45;;;;;;;;;;;;;;;30.90;96.89;150476.28;5071099;28;19921;-78
2022/08/12 12:03:12;;;;;;;;;;;;;;;30.82;96.08;150455.66;5070089;28;19928;-79
2022/08/12 12:05:37;;;;;;;;;;;;;;;30.85;97.15;150464.69;5071618;28;19917;-79
2022/08/12 12:08:02;;;;;;;;;;;;;;;31.33;100.00;150584.69;5087825;28;19965;-79
2022/08/12 12:10:28;;;;;;;;;;;;;;;31.29;100.00;150574.34;5070967;28;19916;-77
2022/08/12 12:13:04;;;;;;;;;;;;;;;31.44;89.72;150613.03;5070526;28;20341;-78
2022/08/12 12:15:29;;;;;;;;;;;;;;;31.38;87.86;150597.56;5070461;28;19917;-76
2022/08/12 12:17:55;;;;;;;;;;;;;;;31.13;84.54;150535.66;5069908;28;19939;-78
2022/08/12 12:20:20;;;;;;;;;;;;;;;31.14;85.82;150538.25;5070905;28;20007;-77
2022/08/12 12:22:47;;;;;;;;;;;;;;;31.16;85.05;150542.09;5069978;28;19923;-76
2022/08/12 12:25:13;;;;;;;;;;;;;;;30.90;86.20;150476.28;5069187;28;19917;-76
2022/08/12 12:27:48;;;;;;;;;;;;;;;31.17;85.73;150544.72;5087096;28;19927;-76
2022/08/12 12:30:14;;;;;;;;;;;;;;;31.46;85.04;150618.22;5070376;28;19921;-76
2022/08/12 12:32:39;;;;;;;;;;;;;;;31.45;80.97;150614.38;5069658;28;20365;-75
2022/08/12 12:35:04;;;;;;;;;;;;;;;31.41;82.33;150605.31;5072224;28;19947;-77
2022/08/12 12:37:30;;;;;;;;;;;;;;;31.53;78.41;150635.00;5073789;28;19927;-76
2022/08/12 12:39:58;;;;;;;;;;;;;;;31.82;85.22;150708.59;5072879;28;20340;-76
2022/08/12 12:42:23;;;;;;;;;;;;;;;31.76;82.54;150693.09;5073576;28;19923;-76
2022/08/12 12:44:49;;;;;;;;;;;;;;;31.30;81.46;150578.22;5072536;28;20401;-77
2022/08/12 12:47:15;;;;;;;;;;;;;;;31.37;80.36;150595.00;5072287;28;19924;-75
2022/08/12 12:49:40;;;;;;;;;;;;;;;31.26;79.58;150567.94;5089968;28;20382;-77
2022/08/12 12:52:06;;;;;;;;;;;;;;;31.36;82.07;150591.16;5073169;28;20026;-76
2022/08/12 12:54:31;;;;;;;;;;;;;;;31.37;88.26;150595.00;5074143;28;20278;-76
2022/08/12 12:56:57;;;;;;;;;;;;;;;31.60;84.55;150653.13;5073423;28;19924;-79
2022/08/12 12:59:23;;;;;;;;;;;;;;;31.96;77.08;150743.44;5072131;28;20342;-78
2022/08/12 13:01:48;;;;;;;;;;;;;;;31.85;76.90;150715.00;5072777;28;19932;-75
2022/08/12 13:04:15;;;;;;;;;;;;;;;31.84;74.44;150712.47;5072318;28;19947;-77
2022/08/12 13:06:40;;;;;;;;;;;;;;;31.79;74.20;150700.84;5072123;28;19916;-76
2022/08/12 13:09:06;;;;;;;;;;;;;;;31.78;78.90;150698.25;5072713;28;19916;-78
2022/08/12 13:11:31;;;;;;;;;;;;;;;32.04;81.88;150764.06;5072588;28;19920;-76
2022/08/12 13:13:56;;;;;;;;;;;;;;;32.15;80.97;150789.94;5071496;28;19920;-76
2022/08/12 13:16:25;;;;;;;;;;;;;;;32.21;73.64;150806.69;5072549;28;19916;-77
2022/08/12 13:18:51;;;;;;;;;;;;;;;32.48;74.45;150872.53;5072825;28;19916;-76
2022/08/12 13:21:17;;;;;;;;;;;;;;;32.12;74.30;150783.47;5071621;28;19924;-79
2022/08/12 13:23:46;;;;;;;;;;;;;;;32.56;72.80;150893.16;5073113;28;19925;-77
2022/08/12 13:26:12;;;;;;;;;;;;;;;31.80;71.36;150703.41;5072464;28;19943;-76
2022/08/12 13:28:41;;;;;;;;;;;;;;;31.66;76.26;150668.56;5071283;28;19931;-76
2022/08/12 13:31:07;;;;;;;;;;;;;;;31.70;75.41;150676.28;5071751;28;20261;-77
2022/08/12 13:33:33;;;;;;;;;;;;;;;31.58;74.55;150646.66;5072466;28;19923;-78
2022/08/12 13:35:59;;;;;;;;;;;;;;;31.49;76.39;150625.97;5071167;28;19962;-78
2022/08/12 13:38:39;;;;;;;;;;;;;;;31.84;76.25;150712.47;5074030;28;19916;-78
2022/08/12 13:41:04;;;;;;;;;;;;;;;31.88;74.78;150721.47;5071944;28;20412;-77
2022/08/12 13:43:30;;;;;;;;;;;;;;;31.87;79.76;150720.19;5073263;28;19961;-79
2022/08/12 13:45:55;;;;;;;;;;;;;;;31.77;73.35;150695.66;5071798;28;19917;-79
2022/08/12 13:48:22;;;;;;;;;;;;;;;31.65;74.26;150666.00;5071274;28;19920;-80
2022/08/12 13:50:47;;;;;;;;;;;;;;;31.49;74.97;150625.97;5072787;28;20395;-76
2022/08/12 13:53:13;;;;;;;;;;;;;;;31.52;76.71;150632.41;5071640;28;20248;-77
2022/08/12 13:55:42;;;;;;;;;;;;;;;31.68;79.31;150672.41;5070908;28;20337;-76
2022/08/12 13:58:12;;;;;;;;;;;;;;;31.47;74.77;150619.50;5071481;28;19974;-76
2022/08/12 14:00:38;;;;;;;;;;;;;;;31.47;77.82;150619.50;5072008;28;20396;-76
2022/08/12 14:03:04;;;;;;;;;;;;;;;31.63;75.28;150659.53;5070366;28;19990;-77
2022/08/12 14:05:29;;;;;;;;;;;;;;;31.77;82.02;150695.66;5071744;28;19960;-76
2022/08/12 14:07:59;;;;;;;;;;;;;;;31.62;80.46;150656.94;5071489;28;19916;-76
2022/08/12 14:10:36;;;;;;;;;;;;;;;31.45;80.28;150615.63;5070320;28;19917;-77
2022/08/12 14:13:11;;;;;;;;;;;;;;;31.36;84.23;150592.41;5071133;28;19920;-76